<?xml version="1.0" encoding="UTF-8" standalone="no" ?>
<gpx xmlns="http://www.topografix.com/GPX/1/1" xmlns:xsi="http://www.w3.org/2001/XMLSchema-instance" xsi:schemaLocation="http://www.topografix.com/GPX/1/1 http://www.topografix.com/GPX/1/1/gpx.xsd" version="1.1" creator="VisuGPX - https://www.visugpx.com">
  <metadata>
    <name>Traces DPT 33</name>
    <desc><![CDATA[Total: 12.2km]]></desc>
  </metadata>
  <trk>
    <name><![CDATA[ACTIVE LOG 006]]></name>
    <extensions>
      <line xmlns="http://www.topografix.com/GPX/gpx_style/0/2">
        <color>FFFF00</color>
        <width>4</width>
      </line>
    </extensions>
    <trkseg>
      <trkpt lat="44.69446" lon="-0.08933">
        <ele>-56.099854</ele>
        <time>2010-05-20T08:00:30Z</time>
      </trkpt>
      <trkpt lat="44.69437" lon="-0.08926">
        <ele>75.60083</ele>
        <time>2010-05-20T08:02:54Z</time>
      </trkpt>
      <trkpt lat="44.6943" lon="-0.08921">
        <ele>75.120239</ele>
        <time>2010-05-20T08:07:08Z</time>
      </trkpt>
      <trkpt lat="44.6943" lon="-0.08921">
        <ele>78.004028</ele>
        <time>2010-05-20T08:07:10Z</time>
      </trkpt>
      <trkpt lat="44.69442" lon="-0.08883">
        <ele>78.004028</ele>
        <time>2010-05-20T08:15:01Z</time>
      </trkpt>
      <trkpt lat="44.69471" lon="-0.08897">
        <ele>81.368774</ele>
        <time>2010-05-20T08:18:23Z</time>
      </trkpt>
      <trkpt lat="44.69501" lon="-0.08843">
        <ele>82.330078</ele>
        <time>2010-05-20T08:19:36Z</time>
      </trkpt>
      <trkpt lat="44.6952" lon="-0.08836">
        <ele>83.771973</ele>
        <time>2010-05-20T08:19:49Z</time>
      </trkpt>
      <trkpt lat="44.69629" lon="-0.08819">
        <ele>90.02063</ele>
        <time>2010-05-20T08:21:20Z</time>
      </trkpt>
      <trkpt lat="44.69737" lon="-0.08826">
        <ele>94.827148</ele>
        <time>2010-05-20T08:22:40Z</time>
      </trkpt>
      <trkpt lat="44.69863" lon="-0.08807">
        <ele>96.749878</ele>
        <time>2010-05-20T08:24:20Z</time>
      </trkpt>
      <trkpt lat="44.70013" lon="-0.08809">
        <ele>100.114502</ele>
        <time>2010-05-20T08:26:23Z</time>
      </trkpt>
      <trkpt lat="44.70055" lon="-0.08815">
        <ele>97.711182</ele>
        <time>2010-05-20T08:26:56Z</time>
      </trkpt>
      <trkpt lat="44.70068" lon="-0.08629">
        <ele>90.501343</ele>
        <time>2010-05-20T08:28:44Z</time>
      </trkpt>
      <trkpt lat="44.70238" lon="-0.08408">
        <ele>84.733398</ele>
        <time>2010-05-20T08:31:43Z</time>
      </trkpt>
      <trkpt lat="44.70265" lon="-0.08319">
        <ele>83.771973</ele>
        <time>2010-05-20T08:32:36Z</time>
      </trkpt>
      <trkpt lat="44.70271" lon="-0.08245">
        <ele>81.849365</ele>
        <time>2010-05-20T08:33:16Z</time>
      </trkpt>
      <trkpt lat="44.70273" lon="-0.08028">
        <ele>68.871582</ele>
        <time>2010-05-20T08:35:20Z</time>
      </trkpt>
      <trkpt lat="44.70263" lon="-0.08005">
        <ele>66.468262</ele>
        <time>2010-05-20T08:36:13Z</time>
      </trkpt>
      <trkpt lat="44.70273" lon="-0.08006">
        <ele>66.948975</ele>
        <time>2010-05-20T08:36:32Z</time>
      </trkpt>
      <trkpt lat="44.70274" lon="-0.07984">
        <ele>65.987671</ele>
        <time>2010-05-20T08:36:45Z</time>
      </trkpt>
      <trkpt lat="44.70252" lon="-0.07739">
        <ele>55.893799</ele>
        <time>2010-05-20T08:38:44Z</time>
      </trkpt>
      <trkpt lat="44.7025" lon="-0.07724">
        <ele>54.451782</ele>
        <time>2010-05-20T08:38:52Z</time>
      </trkpt>
      <trkpt lat="44.70265" lon="-0.07656">
        <ele>57.816528</ele>
        <time>2010-05-20T08:39:29Z</time>
      </trkpt>
      <trkpt lat="44.70354" lon="-0.07697">
        <ele>59.739136</ele>
        <time>2010-05-20T08:40:38Z</time>
      </trkpt>
      <trkpt lat="44.70501" lon="-0.07766">
        <ele>56.374512</ele>
        <time>2010-05-20T08:42:30Z</time>
      </trkpt>
      <trkpt lat="44.70612" lon="-0.07842">
        <ele>56.374512</ele>
        <time>2010-05-20T08:44:03Z</time>
      </trkpt>
      <trkpt lat="44.70757" lon="-0.07866">
        <ele>60.700317</ele>
        <time>2010-05-20T08:45:57Z</time>
      </trkpt>
      <trkpt lat="44.71051" lon="-0.07971">
        <ele>65.987671</ele>
        <time>2010-05-20T08:49:49Z</time>
      </trkpt>
      <trkpt lat="44.7119" lon="-0.08107">
        <ele>61.661743</ele>
        <time>2010-05-20T08:52:11Z</time>
      </trkpt>
      <trkpt lat="44.71224" lon="-0.0811">
        <ele>60.700317</ele>
        <time>2010-05-20T08:52:38Z</time>
      </trkpt>
      <trkpt lat="44.71263" lon="-0.08143">
        <ele>61.661743</ele>
        <time>2010-05-20T08:53:13Z</time>
      </trkpt>
      <trkpt lat="44.71301" lon="-0.08158">
        <ele>60.700317</ele>
        <time>2010-05-20T08:53:43Z</time>
      </trkpt>
      <trkpt lat="44.71357" lon="-0.08111">
        <ele>67.910278</ele>
        <time>2010-05-20T08:54:34Z</time>
      </trkpt>
      <trkpt lat="44.71375" lon="-0.08094">
        <ele>65.987671</ele>
        <time>2010-05-20T08:54:51Z</time>
      </trkpt>
      <trkpt lat="44.7146" lon="-0.0796">
        <ele>69.352295</ele>
        <time>2010-05-20T08:56:44Z</time>
      </trkpt>
      <trkpt lat="44.71551" lon="-0.08105">
        <ele>63.584351</ele>
        <time>2010-05-20T08:58:44Z</time>
      </trkpt>
      <trkpt lat="44.7158" lon="-0.08131">
        <ele>63.584351</ele>
        <time>2010-05-20T08:59:09Z</time>
      </trkpt>
      <trkpt lat="44.71643" lon="-0.08138">
        <ele>65.50708</ele>
        <time>2010-05-20T09:00:04Z</time>
      </trkpt>
      <trkpt lat="44.71738" lon="-0.08096">
        <ele>68.871582</ele>
        <time>2010-05-20T09:01:25Z</time>
      </trkpt>
      <trkpt lat="44.71832" lon="-0.08169">
        <ele>76.081421</ele>
        <time>2010-05-20T09:02:55Z</time>
      </trkpt>
      <trkpt lat="44.71888" lon="-0.08179">
        <ele>80.407471</ele>
        <time>2010-05-20T09:03:42Z</time>
      </trkpt>
      <trkpt lat="44.71938" lon="-0.08219">
        <ele>79.926636</ele>
        <time>2010-05-20T09:04:28Z</time>
      </trkpt>
      <trkpt lat="44.7198" lon="-0.08287">
        <ele>80.888184</ele>
        <time>2010-05-20T09:05:19Z</time>
      </trkpt>
      <trkpt lat="44.72006" lon="-0.08329">
        <ele>80.407471</ele>
        <time>2010-05-20T09:05:54Z</time>
      </trkpt>
      <trkpt lat="44.72026" lon="-0.08336">
        <ele>79.926636</ele>
        <time>2010-05-20T09:10:28Z</time>
      </trkpt>
      <trkpt lat="44.72051" lon="-0.08316">
        <ele>82.330078</ele>
        <time>2010-05-20T09:10:57Z</time>
      </trkpt>
      <trkpt lat="44.72098" lon="-0.08386">
        <ele>80.407471</ele>
        <time>2010-05-20T09:11:54Z</time>
      </trkpt>
      <trkpt lat="44.72156" lon="-0.08432">
        <ele>79.446045</ele>
        <time>2010-05-20T09:12:43Z</time>
      </trkpt>
      <trkpt lat="44.72162" lon="-0.08462">
        <ele>77.523438</ele>
        <time>2010-05-20T09:13:04Z</time>
      </trkpt>
      <trkpt lat="44.72206" lon="-0.08496">
        <ele>74.639526</ele>
        <time>2010-05-20T09:13:50Z</time>
      </trkpt>
      <trkpt lat="44.72237" lon="-0.08566">
        <ele>73.197632</ele>
        <time>2010-05-20T09:14:42Z</time>
      </trkpt>
      <trkpt lat="44.7233" lon="-0.08576">
        <ele>74.158813</ele>
        <time>2010-05-20T09:16:09Z</time>
      </trkpt>
      <trkpt lat="44.72745" lon="-0.08707">
        <ele>91.943237</ele>
        <time>2010-05-20T09:22:33Z</time>
      </trkpt>
      <trkpt lat="44.72839" lon="-0.08747">
        <ele>94.827148</ele>
        <time>2010-05-20T09:23:53Z</time>
      </trkpt>
      <trkpt lat="44.72936" lon="-0.08718">
        <ele>99.153076</ele>
        <time>2010-05-20T09:25:16Z</time>
      </trkpt>
      <trkpt lat="44.72988" lon="-0.08693">
        <ele>97.711182</ele>
        <time>2010-05-20T09:27:13Z</time>
      </trkpt>
      <trkpt lat="44.72985" lon="-0.08863">
        <ele>99.633789</ele>
        <time>2010-05-20T09:31:40Z</time>
      </trkpt>
      <trkpt lat="44.72975" lon="-0.09001">
        <ele>97.711182</ele>
        <time>2010-05-20T09:33:04Z</time>
      </trkpt>
      <trkpt lat="44.72976" lon="-0.09042">
        <ele>98.672485</ele>
        <time>2010-05-20T09:33:30Z</time>
      </trkpt>
      <trkpt lat="44.72976" lon="-0.09055">
        <ele>96.749878</ele>
        <time>2010-05-20T09:33:39Z</time>
      </trkpt>
      <trkpt lat="44.7298" lon="-0.09063">
        <ele>96.749878</ele>
        <time>2010-05-20T09:33:45Z</time>
      </trkpt>
      <trkpt lat="44.73039" lon="-0.09038">
        <ele>98.191895</ele>
        <time>2010-05-20T09:34:46Z</time>
      </trkpt>
      <trkpt lat="44.73088" lon="-0.09019">
        <ele>93.385132</ele>
        <time>2010-05-20T09:35:35Z</time>
      </trkpt>
      <trkpt lat="44.73232" lon="-0.09053">
        <ele>89.059326</ele>
        <time>2010-05-20T09:37:37Z</time>
      </trkpt>
      <trkpt lat="44.73314" lon="-0.09069">
        <ele>82.810791</ele>
        <time>2010-05-20T09:38:41Z</time>
      </trkpt>
      <trkpt lat="44.73503" lon="-0.09087">
        <ele>80.407471</ele>
        <time>2010-05-20T09:41:10Z</time>
      </trkpt>
      <trkpt lat="44.73536" lon="-0.09145">
        <ele>79.926636</ele>
        <time>2010-05-20T09:41:55Z</time>
      </trkpt>
      <trkpt lat="44.73603" lon="-0.09324">
        <ele>73.678223</ele>
        <time>2010-05-20T09:43:55Z</time>
      </trkpt>
      <trkpt lat="44.73496" lon="-0.09454">
        <ele>71.274902</ele>
        <time>2010-05-20T09:46:08Z</time>
      </trkpt>
      <trkpt lat="44.73474" lon="-0.09501">
        <ele>69.352295</ele>
        <time>2010-05-20T09:46:41Z</time>
      </trkpt>
      <trkpt lat="44.73469" lon="-0.09551">
        <ele>68.871582</ele>
        <time>2010-05-20T09:47:09Z</time>
      </trkpt>
      <trkpt lat="44.73716" lon="-0.09624">
        <ele>69.832886</ele>
        <time>2010-05-20T09:50:36Z</time>
      </trkpt>
      <trkpt lat="44.73839" lon="-0.09743">
        <ele>71.755493</ele>
        <time>2010-05-20T09:52:33Z</time>
      </trkpt>
      <trkpt lat="44.73888" lon="-0.09772">
        <ele>72.236206</ele>
        <time>2010-05-20T09:53:16Z</time>
      </trkpt>
      <trkpt lat="44.73971" lon="-0.0981">
        <ele>72.236206</ele>
        <time>2010-05-20T09:54:28Z</time>
      </trkpt>
      <trkpt lat="44.74109" lon="-0.09868">
        <ele>70.794189</ele>
        <time>2010-05-20T09:57:32Z</time>
      </trkpt>
      <trkpt lat="44.74191" lon="-0.09906">
        <ele>65.987671</ele>
        <time>2010-05-20T09:58:44Z</time>
      </trkpt>
      <trkpt lat="44.74273" lon="-0.10039">
        <ele>63.103638</ele>
        <time>2010-05-20T10:01:26Z</time>
      </trkpt>
      <trkpt lat="44.74276" lon="-0.10089">
        <ele>61.661743</ele>
        <time>2010-05-20T10:02:03Z</time>
      </trkpt>
      <trkpt lat="44.74235" lon="-0.10208">
        <ele>69.832886</ele>
        <time>2010-05-20T10:03:24Z</time>
      </trkpt>
      <trkpt lat="44.74241" lon="-0.10291">
        <ele>70.794189</ele>
        <time>2010-05-20T10:04:14Z</time>
      </trkpt>
      <trkpt lat="44.74276" lon="-0.10391">
        <ele>74.639526</ele>
        <time>2010-05-20T10:05:24Z</time>
      </trkpt>
      <trkpt lat="44.74305" lon="-0.10405">
        <ele>79.446045</ele>
        <time>2010-05-20T10:05:53Z</time>
      </trkpt>
      <trkpt lat="44.74232" lon="-0.10483">
        <ele>78.004028</ele>
        <time>2010-05-20T10:07:30Z</time>
      </trkpt>
      <trkpt lat="44.74173" lon="-0.10534">
        <ele>72.716919</ele>
        <time>2010-05-20T10:08:35Z</time>
      </trkpt>
      <trkpt lat="44.73971" lon="-0.10644">
        <ele>76.562134</ele>
        <time>2010-05-20T10:11:42Z</time>
      </trkpt>
      <trkpt lat="44.73947" lon="-0.10662">
        <ele>75.120239</ele>
        <time>2010-05-20T10:12:19Z</time>
      </trkpt>
      <trkpt lat="44.73949" lon="-0.10671">
        <ele>77.042847</ele>
        <time>2010-05-20T10:13:12Z</time>
      </trkpt>
      <trkpt lat="44.7387" lon="-0.10715">
        <ele>78.484741</ele>
        <time>2010-05-20T10:15:44Z</time>
      </trkpt>
      <trkpt lat="44.7384" lon="-0.10735">
        <ele>77.523438</ele>
        <time>2010-05-20T10:16:12Z</time>
      </trkpt>
      <trkpt lat="44.73756" lon="-0.10746">
        <ele>79.446045</ele>
        <time>2010-05-20T10:17:18Z</time>
      </trkpt>
      <trkpt lat="44.73653" lon="-0.10774">
        <ele>76.562134</ele>
        <time>2010-05-20T10:18:50Z</time>
      </trkpt>
      <trkpt lat="44.73643" lon="-0.10889">
        <ele>86.656006</ele>
        <time>2010-05-20T10:20:14Z</time>
      </trkpt>
      <trkpt lat="44.73642" lon="-0.11009">
        <ele>83.291382</ele>
        <time>2010-05-20T10:21:31Z</time>
      </trkpt>
      <trkpt lat="44.73634" lon="-0.11074">
        <ele>91.462524</ele>
        <time>2010-05-20T10:22:20Z</time>
      </trkpt>
      <trkpt lat="44.73625" lon="-0.11141">
        <ele>95.788452</ele>
        <time>2010-05-20T10:23:07Z</time>
      </trkpt>
      <trkpt lat="44.73628" lon="-0.11193">
        <ele>101.556396</ele>
        <time>2010-05-20T10:23:42Z</time>
      </trkpt>
      <trkpt lat="44.7363" lon="-0.11203">
        <ele>100.114502</ele>
        <time>2010-05-20T10:23:48Z</time>
      </trkpt>
      <trkpt lat="44.73629" lon="-0.11231">
        <ele>102.5177</ele>
        <time>2010-05-20T10:24:19Z</time>
      </trkpt>
      <trkpt lat="44.73627" lon="-0.11232">
        <ele>100.595093</ele>
        <time>2010-05-20T10:24:47Z</time>
      </trkpt>
      <trkpt lat="44.7369" lon="-0.11325">
        <ele>103.959717</ele>
        <time>2010-05-20T10:26:33Z</time>
      </trkpt>
      <trkpt lat="44.73725" lon="-0.11365">
        <ele>103.479004</ele>
        <time>2010-05-20T10:27:10Z</time>
      </trkpt>
      <trkpt lat="44.73792" lon="-0.11405">
        <ele>102.5177</ele>
        <time>2010-05-20T10:28:06Z</time>
      </trkpt>
      <trkpt lat="44.73847" lon="-0.11447">
        <ele>99.633789</ele>
        <time>2010-05-20T10:28:55Z</time>
      </trkpt>
      <trkpt lat="44.73934" lon="-0.11487">
        <ele>95.788452</ele>
        <time>2010-05-20T10:30:10Z</time>
      </trkpt>
      <trkpt lat="44.74027" lon="-0.11481">
        <ele>95.307739</ele>
        <time>2010-05-20T10:31:29Z</time>
      </trkpt>
      <trkpt lat="44.74091" lon="-0.11452">
        <ele>93.385132</ele>
        <time>2010-05-20T10:33:01Z</time>
      </trkpt>
      <trkpt lat="44.74117" lon="-0.11567">
        <ele>92.904541</ele>
        <time>2010-05-20T10:34:31Z</time>
      </trkpt>
      <trkpt lat="44.74151" lon="-0.11862">
        <ele>80.888184</ele>
        <time>2010-05-20T10:37:40Z</time>
      </trkpt>
      <trkpt lat="44.74149" lon="-0.11866">
        <ele>79.446045</ele>
        <time>2010-05-20T10:37:46Z</time>
      </trkpt>
      <trkpt lat="44.74064" lon="-0.11926">
        <ele>82.330078</ele>
        <time>2010-05-20T10:39:08Z</time>
      </trkpt>
      <trkpt lat="44.73859" lon="-0.12013">
        <ele>83.771973</ele>
        <time>2010-05-20T10:42:17Z</time>
      </trkpt>
      <trkpt lat="44.73834" lon="-0.12069">
        <ele>83.771973</ele>
        <time>2010-05-20T10:42:51Z</time>
      </trkpt>
      <trkpt lat="44.73799" lon="-0.12131">
        <ele>79.446045</ele>
        <time>2010-05-20T10:43:43Z</time>
      </trkpt>
      <trkpt lat="44.73793" lon="-0.12155">
        <ele>79.446045</ele>
        <time>2010-05-20T10:43:58Z</time>
      </trkpt>
      <trkpt lat="44.73782" lon="-0.12168">
        <ele>79.446045</ele>
        <time>2010-05-20T10:44:09Z</time>
      </trkpt>
      <trkpt lat="44.73719" lon="-0.12165">
        <ele>81.368774</ele>
        <time>2010-05-20T10:44:58Z</time>
      </trkpt>
      <trkpt lat="44.73618" lon="-0.12153">
        <ele>77.523438</ele>
        <time>2010-05-20T10:46:24Z</time>
      </trkpt>
      <trkpt lat="44.73479" lon="-0.12196">
        <ele>84.733398</ele>
        <time>2010-05-20T10:48:27Z</time>
      </trkpt>
      <trkpt lat="44.73455" lon="-0.12325">
        <ele>80.407471</ele>
        <time>2010-05-20T10:50:21Z</time>
      </trkpt>
      <trkpt lat="44.73391" lon="-0.12323">
        <ele>82.810791</ele>
        <time>2010-05-20T10:51:15Z</time>
      </trkpt>
      <trkpt lat="44.73286" lon="-0.12327">
        <ele>76.562134</ele>
        <time>2010-05-20T10:52:41Z</time>
      </trkpt>
      <trkpt lat="44.73263" lon="-0.12325">
        <ele>75.60083</ele>
        <time>2010-05-20T10:53:01Z</time>
      </trkpt>
      <trkpt lat="44.73236" lon="-0.12328">
        <ele>72.236206</ele>
        <time>2010-05-20T10:53:24Z</time>
      </trkpt>
      <trkpt lat="44.73159" lon="-0.12313">
        <ele>65.987671</ele>
        <time>2010-05-20T10:54:31Z</time>
      </trkpt>
      <trkpt lat="44.73117" lon="-0.12333">
        <ele>74.158813</ele>
        <time>2010-05-20T10:55:15Z</time>
      </trkpt>
      <trkpt lat="44.73089" lon="-0.12329">
        <ele>76.562134</ele>
        <time>2010-05-20T10:55:40Z</time>
      </trkpt>
      <trkpt lat="44.73077" lon="-0.12336">
        <ele>74.158813</ele>
        <time>2010-05-20T10:55:52Z</time>
      </trkpt>
      <trkpt lat="44.73054" lon="-0.123">
        <ele>74.158813</ele>
        <time>2010-05-20T10:56:43Z</time>
      </trkpt>
      <trkpt lat="44.73075" lon="-0.1229">
        <ele>81.849365</ele>
        <time>2010-05-20T11:26:29Z</time>
      </trkpt>
      <trkpt lat="44.73082" lon="-0.12264">
        <ele>80.407471</ele>
        <time>2010-05-20T11:49:48Z</time>
      </trkpt>
      <trkpt lat="44.73096" lon="-0.12257">
        <ele>79.926636</ele>
        <time>2010-05-20T11:51:18Z</time>
      </trkpt>
      <trkpt lat="44.73075" lon="-0.1227">
        <ele>79.446045</ele>
        <time>2010-05-20T11:55:47Z</time>
      </trkpt>
      <trkpt lat="44.73075" lon="-0.12293">
        <ele>80.888184</ele>
        <time>2010-05-20T11:58:52Z</time>
      </trkpt>
      <trkpt lat="44.73046" lon="-0.1229">
        <ele>76.081421</ele>
        <time>2010-05-20T12:00:10Z</time>
      </trkpt>
      <trkpt lat="44.73058" lon="-0.12311">
        <ele>76.562134</ele>
        <time>2010-05-20T12:00:40Z</time>
      </trkpt>
      <trkpt lat="44.73039" lon="-0.12298">
        <ele>75.60083</ele>
        <time>2010-05-20T12:01:59Z</time>
      </trkpt>
      <trkpt lat="44.73051" lon="-0.12297">
        <ele>78.484741</ele>
        <time>2010-05-20T12:04:24Z</time>
      </trkpt>
      <trkpt lat="44.73016" lon="-0.1217">
        <ele>78.965454</ele>
        <time>2010-05-20T12:09:24Z</time>
      </trkpt>
      <trkpt lat="44.72966" lon="-0.12176">
        <ele>82.330078</ele>
        <time>2010-05-20T12:10:20Z</time>
      </trkpt>
      <trkpt lat="44.72834" lon="-0.12202">
        <ele>83.291382</ele>
        <time>2010-05-20T12:12:32Z</time>
      </trkpt>
      <trkpt lat="44.72642" lon="-0.12199">
        <ele>76.081421</ele>
        <time>2010-05-20T12:15:41Z</time>
      </trkpt>
      <trkpt lat="44.72447" lon="-0.12167">
        <ele>65.987671</ele>
        <time>2010-05-20T12:18:47Z</time>
      </trkpt>
      <trkpt lat="44.72195" lon="-0.12001">
        <ele>70.313477</ele>
        <time>2010-05-20T12:22:57Z</time>
      </trkpt>
      <trkpt lat="44.72155" lon="-0.11942">
        <ele>71.274902</ele>
        <time>2010-05-20T12:23:50Z</time>
      </trkpt>
      <trkpt lat="44.72029" lon="-0.11833">
        <ele>76.562134</ele>
        <time>2010-05-20T12:26:03Z</time>
      </trkpt>
      <trkpt lat="44.71931" lon="-0.11795">
        <ele>78.484741</ele>
        <time>2010-05-20T12:27:35Z</time>
      </trkpt>
      <trkpt lat="44.71865" lon="-0.12065">
        <ele>81.368774</ele>
        <time>2010-05-20T12:31:29Z</time>
      </trkpt>
      <trkpt lat="44.71903" lon="-0.12114">
        <ele>82.810791</ele>
        <time>2010-05-20T12:32:41Z</time>
      </trkpt>
      <trkpt lat="44.71904" lon="-0.12121">
        <ele>80.407471</ele>
        <time>2010-05-20T12:32:47Z</time>
      </trkpt>
      <trkpt lat="44.71853" lon="-0.1221">
        <ele>82.330078</ele>
        <time>2010-05-20T12:34:04Z</time>
      </trkpt>
      <trkpt lat="44.71852" lon="-0.12212">
        <ele>79.926636</ele>
        <time>2010-05-20T12:34:06Z</time>
      </trkpt>
      <trkpt lat="44.71785" lon="-0.12241">
        <ele>84.733398</ele>
        <time>2010-05-20T12:35:07Z</time>
      </trkpt>
      <trkpt lat="44.71699" lon="-0.12268">
        <ele>83.291382</ele>
        <time>2010-05-20T12:36:28Z</time>
      </trkpt>
      <trkpt lat="44.71728" lon="-0.12531">
        <ele>89.059326</ele>
        <time>2010-05-20T12:41:13Z</time>
      </trkpt>
      <trkpt lat="44.71708" lon="-0.12588">
        <ele>84.252686</ele>
        <time>2010-05-20T12:42:28Z</time>
      </trkpt>
      <trkpt lat="44.71721" lon="-0.12595">
        <ele>83.771973</ele>
        <time>2010-05-20T12:42:36Z</time>
      </trkpt>
      <trkpt lat="44.71713" lon="-0.12683">
        <ele>84.733398</ele>
        <time>2010-05-20T12:43:23Z</time>
      </trkpt>
      <trkpt lat="44.71714" lon="-0.12685">
        <ele>84.733398</ele>
        <time>2010-05-20T12:43:24Z</time>
      </trkpt>
      <trkpt lat="44.7172" lon="-0.12857">
        <ele>81.368774</ele>
        <time>2010-05-20T12:45:13Z</time>
      </trkpt>
      <trkpt lat="44.7161" lon="-0.12925">
        <ele>80.407471</ele>
        <time>2010-05-20T12:46:59Z</time>
      </trkpt>
      <trkpt lat="44.7161" lon="-0.12957">
        <ele>81.849365</ele>
        <time>2010-05-20T12:47:19Z</time>
      </trkpt>
      <trkpt lat="44.71604" lon="-0.12978">
        <ele>79.926636</ele>
        <time>2010-05-20T12:48:01Z</time>
      </trkpt>
      <trkpt lat="44.7147" lon="-0.13028">
        <ele>76.562134</ele>
        <time>2010-05-20T12:50:20Z</time>
      </trkpt>
      <trkpt lat="44.71436" lon="-0.13093">
        <ele>75.120239</ele>
        <time>2010-05-20T12:51:14Z</time>
      </trkpt>
      <trkpt lat="44.7129" lon="-0.13294">
        <ele>77.523438</ele>
        <time>2010-05-20T12:56:47Z</time>
      </trkpt>
      <trkpt lat="44.71133" lon="-0.1343">
        <ele>76.081421</ele>
        <time>2010-05-20T13:02:34Z</time>
      </trkpt>
      <trkpt lat="44.71089" lon="-0.13446">
        <ele>76.562134</ele>
        <time>2010-05-20T13:03:14Z</time>
      </trkpt>
      <trkpt lat="44.71059" lon="-0.13445">
        <ele>76.081421</ele>
        <time>2010-05-20T13:03:41Z</time>
      </trkpt>
      <trkpt lat="44.70902" lon="-0.13295">
        <ele>71.274902</ele>
        <time>2010-05-20T13:06:57Z</time>
      </trkpt>
      <trkpt lat="44.70901" lon="-0.13281">
        <ele>70.313477</ele>
        <time>2010-05-20T13:07:05Z</time>
      </trkpt>
      <trkpt lat="44.70876" lon="-0.13259">
        <ele>69.352295</ele>
        <time>2010-05-20T13:07:27Z</time>
      </trkpt>
      <trkpt lat="44.70835" lon="-0.13213">
        <ele>66.468262</ele>
        <time>2010-05-20T13:08:13Z</time>
      </trkpt>
      <trkpt lat="44.70807" lon="-0.13192">
        <ele>64.545654</ele>
        <time>2010-05-20T13:08:41Z</time>
      </trkpt>
      <trkpt lat="44.70788" lon="-0.13164">
        <ele>61.661743</ele>
        <time>2010-05-20T13:09:06Z</time>
      </trkpt>
      <trkpt lat="44.70722" lon="-0.12984">
        <ele>61.18103</ele>
        <time>2010-05-20T13:11:07Z</time>
      </trkpt>
      <trkpt lat="44.70689" lon="-0.12756">
        <ele>70.794189</ele>
        <time>2010-05-20T13:13:34Z</time>
      </trkpt>
      <trkpt lat="44.70617" lon="-0.12727">
        <ele>74.158813</ele>
        <time>2010-05-20T13:15:07Z</time>
      </trkpt>
      <trkpt lat="44.70599" lon="-0.12663">
        <ele>78.484741</ele>
        <time>2010-05-20T13:15:52Z</time>
      </trkpt>
      <trkpt lat="44.70557" lon="-0.12458">
        <ele>74.639526</ele>
        <time>2010-05-20T13:17:52Z</time>
      </trkpt>
      <trkpt lat="44.70553" lon="-0.12341">
        <ele>77.042847</ele>
        <time>2010-05-20T13:19:00Z</time>
      </trkpt>
      <trkpt lat="44.70534" lon="-0.12063">
        <ele>77.042847</ele>
        <time>2010-05-20T13:21:39Z</time>
      </trkpt>
      <trkpt lat="44.70469" lon="-0.11822">
        <ele>73.197632</ele>
        <time>2010-05-20T13:24:08Z</time>
      </trkpt>
      <trkpt lat="44.70452" lon="-0.11635">
        <ele>73.197632</ele>
        <time>2010-05-20T13:25:55Z</time>
      </trkpt>
      <trkpt lat="44.70401" lon="-0.11342">
        <ele>76.081421</ele>
        <time>2010-05-20T13:28:55Z</time>
      </trkpt>
      <trkpt lat="44.70395" lon="-0.11312">
        <ele>75.60083</ele>
        <time>2010-05-20T13:29:12Z</time>
      </trkpt>
      <trkpt lat="44.70374" lon="-0.11259">
        <ele>78.004028</ele>
        <time>2010-05-20T13:36:09Z</time>
      </trkpt>
      <trkpt lat="44.70219" lon="-0.10687">
        <ele>76.562134</ele>
        <time>2010-05-20T13:42:31Z</time>
      </trkpt>
      <trkpt lat="44.70081" lon="-0.10437">
        <ele>81.849365</ele>
        <time>2010-05-20T13:46:47Z</time>
      </trkpt>
      <trkpt lat="44.70029" lon="-0.10389">
        <ele>83.291382</ele>
        <time>2010-05-20T13:47:51Z</time>
      </trkpt>
      <trkpt lat="44.6997" lon="-0.10307">
        <ele>83.291382</ele>
        <time>2010-05-20T13:49:02Z</time>
      </trkpt>
      <trkpt lat="44.69962" lon="-0.1026">
        <ele>83.291382</ele>
        <time>2010-05-20T13:49:33Z</time>
      </trkpt>
      <trkpt lat="44.69889" lon="-0.09998">
        <ele>65.50708</ele>
        <time>2010-05-20T13:52:48Z</time>
      </trkpt>
      <trkpt lat="44.69843" lon="-0.09745">
        <ele>61.661743</ele>
        <time>2010-05-20T13:56:25Z</time>
      </trkpt>
      <trkpt lat="44.69877" lon="-0.09412">
        <ele>69.352295</ele>
        <time>2010-05-20T14:00:02Z</time>
      </trkpt>
      <trkpt lat="44.69749" lon="-0.0923">
        <ele>67.910278</ele>
        <time>2010-05-20T14:04:50Z</time>
      </trkpt>
      <trkpt lat="44.6959" lon="-0.09094">
        <ele>71.755493</ele>
        <time>2010-05-20T14:08:17Z</time>
      </trkpt>
      <trkpt lat="44.69529" lon="-0.09004">
        <ele>70.794189</ele>
        <time>2010-05-20T14:09:29Z</time>
      </trkpt>
      <trkpt lat="44.69495" lon="-0.08921">
        <ele>70.313477</ele>
        <time>2010-05-20T14:10:35Z</time>
      </trkpt>
      <trkpt lat="44.69486" lon="-0.08902">
        <ele>69.832886</ele>
        <time>2010-05-20T14:10:48Z</time>
      </trkpt>
      <trkpt lat="44.69444" lon="-0.08893">
        <ele>66.948975</ele>
        <time>2010-05-20T14:13:33Z</time>
      </trkpt>
    </trkseg>
  </trk>
</gpx>